sensor_id;sensor_type;location;lat;lon;timestamp;temperature;humidity
12771;DHT22;6449;47.666;9.160;2023-04-08T00:04:14;7.20;99.90
12771;DHT22;6449;47.666;9.160;2023-04-08T00:09:09;7.10;99.90
12771;DHT22;6449;47.666;9.160;2023-04-08T00:14:03;7.00;99.90
12771;DHT22;6449;47.666;9.160;2023-04-08T00:18:56;7.00;99.90
12771;DHT22;6449;47.666;9.160;2023-04-08T00:23:51;7.00;99.90
12771;DHT22;6449;47.666;9.160;2023-04-08T00:28:46;7.00;99.90
12771;DHT22;6449;47.666;9.160;2023-04-08T00:33:40;7.10;99.90
12771;DHT22;6449;47.666;9.160;2023-04-08T00:38:33;7.10;99.90
12771;DHT22;6449;47.666;9.160;2023-04-08T00:43:27;7.10;99.90
12771;DHT22;6449;47.666;9.160;2023-04-08T00:48:21;7.10;99.90
12771;DHT22;6449;47.666;9.160;2023-04-08T00:53:17;7.10;99.90
12771;DHT22;6449;47.666;9.160;2023-04-08T00:58:11;7.10;99.90
12771;DHT22;6449;47.666;9.160;2023-04-08T01:03:12;7.20;99.90
12771;DHT22;6449;47.666;9.160;2023-04-08T01:08:11;7.20;99.90
12771;DHT22;6449;47.666;9.160;2023-04-08T01:13:07;7.30;99.90
12771;DHT22;6449;47.666;9.160;2023-04-08T01:18:06;7.30;99.90
12771;DHT22;6449;47.666;9.160;2023-04-08T01:23:12;7.40;99.90
12771;DHT22;6449;47.666;9.160;2023-04-08T01:33:16;7.30;99.90
12771;DHT22;6449;47.666;9.160;2023-04-08T01:38:15;7.20;99.90
12771;DHT22;6449;47.666;9.160;2023-04-08T01:43:15;7.00;99.90
12771;DHT22;6449;47.666;9.160;2023-04-08T01:48:11;7.10;99.90
12771;DHT22;6449;47.666;9.160;2023-04-08T01:53:08;7.10;99.90
12771;DHT22;6449;47.666;9.160;2023-04-08T01:58:05;6.90;99.90
12771;DHT22;6449;47.666;9.160;2023-04-08T02:03:04;6.90;99.90
12771;DHT22;6449;47.666;9.160;2023-04-08T02:08:00;6.80;99.90
12771;DHT22;6449;47.666;9.160;2023-04-08T02:12:56;6.80;99.90
12771;DHT22;6449;47.666;9.160;2023-04-08T02:17:53;6.70;99.90
12771;DHT22;6449;47.666;9.160;2023-04-08T02:22:58;6.80;99.90
12771;DHT22;6449;47.666;9.160;2023-04-08T02:28:02;6.80;99.90
12771;DHT22;6449;47.666;9.160;2023-04-08T02:32:58;6.90;99.90
12771;DHT22;6449;47.666;9.160;2023-04-08T02:37:56;6.90;99.90
12771;DHT22;6449;47.666;9.160;2023-04-08T02:42:50;6.80;99.90
12771;DHT22;6449;47.666;9.160;2023-04-08T02:47:44;6.70;99.90
12771;DHT22;6449;47.666;9.160;2023-04-08T02:52:38;6.60;99.90
12771;DHT22;6449;47.666;9.160;2023-04-08T02:57:31;6.40;99.90
12771;DHT22;6449;47.666;9.160;2023-04-08T03:02:26;6.50;99.90
12771;DHT22;6449;47.666;9.160;2023-04-08T03:07:19;6.50;99.90
12771;DHT22;6449;47.666;9.160;2023-04-08T03:12:13;6.60;99.90
12771;DHT22;6449;47.666;9.160;2023-04-08T03:17:06;6.70;99.90
12771;DHT22;6449;47.666;9.160;2023-04-08T03:22:03;6.70;99.90
12771;DHT22;6449;47.666;9.160;2023-04-08T03:26:57;6.60;99.90
12771;DHT22;6449;47.666;9.160;2023-04-08T03:31:50;6.70;99.90
12771;DHT22;6449;47.666;9.160;2023-04-08T03:36:44;6.70;99.90
12771;DHT22;6449;47.666;9.160;2023-04-08T03:41:38;6.70;99.90
12771;DHT22;6449;47.666;9.160;2023-04-08T03:46:32;6.70;99.90
12771;DHT22;6449;47.666;9.160;2023-04-08T03:51:25;6.70;99.90
12771;DHT22;6449;47.666;9.160;2023-04-08T03:56:19;6.70;99.90
12771;DHT22;6449;47.666;9.160;2023-04-08T04:01:20;6.80;99.90
12771;DHT22;6449;47.666;9.160;2023-04-08T04:06:13;6.80;99.90
12771;DHT22;6449;47.666;9.160;2023-04-08T04:11:07;6.70;99.90
12771;DHT22;6449;47.666;9.160;2023-04-08T04:16:01;6.60;99.90
12771;DHT22;6449;47.666;9.160;2023-04-08T04:20:55;6.60;99.90
12771;DHT22;6449;47.666;9.160;2023-04-08T04:25:49;6.60;99.90
12771;DHT22;6449;47.666;9.160;2023-04-08T04:30:54;6.60;99.90
12771;DHT22;6449;47.666;9.160;2023-04-08T04:35:48;6.60;99.90
12771;DHT22;6449;47.666;9.160;2023-04-08T04:40:43;6.60;99.90
12771;DHT22;6449;47.666;9.160;2023-04-08T04:45:36;6.70;99.90
12771;DHT22;6449;47.666;9.160;2023-04-08T04:50:31;6.60;99.90
12771;DHT22;6449;47.666;9.160;2023-04-08T04:55:24;6.70;99.90
12771;DHT22;6449;47.666;9.160;2023-04-08T05:00:19;6.70;99.90
12771;DHT22;6449;47.666;9.160;2023-04-08T05:05:16;6.70;99.90
12771;DHT22;6449;47.666;9.160;2023-04-08T05:10:10;6.60;99.90
12771;DHT22;6449;47.666;9.160;2023-04-08T05:15:04;6.50;99.90
12771;DHT22;6449;47.666;9.160;2023-04-08T05:19:59;6.50;99.90
12771;DHT22;6449;47.666;9.160;2023-04-08T05:24:53;6.40;99.90
12771;DHT22;6449;47.666;9.160;2023-04-08T05:29:46;6.50;99.90
12771;DHT22;6449;47.666;9.160;2023-04-08T05:34:40;6.50;99.90
12771;DHT22;6449;47.666;9.160;2023-04-08T05:39:34;6.50;99.90
12771;DHT22;6449;47.666;9.160;2023-04-08T05:44:28;6.60;99.90
12771;DHT22;6449;47.666;9.160;2023-04-08T05:49:21;6.60;99.90
12771;DHT22;6449;47.666;9.160;2023-04-08T05:54:15;6.50;99.90
12771;DHT22;6449;47.666;9.160;2023-04-08T05:59:09;6.60;99.90
12771;DHT22;6449;47.666;9.160;2023-04-08T06:04:03;6.60;99.90
12771;DHT22;6449;47.666;9.160;2023-04-08T06:08:57;6.60;99.90
12771;DHT22;6449;47.666;9.160;2023-04-08T06:13:51;6.70;99.90
12771;DHT22;6449;47.666;9.160;2023-04-08T06:18:46;6.90;99.90
12771;DHT22;6449;47.666;9.160;2023-04-08T06:23:40;7.00;99.90
12771;DHT22;6449;47.666;9.160;2023-04-08T06:28:33;7.00;99.90
12771;DHT22;6449;47.666;9.160;2023-04-08T06:33:27;7.10;99.90
12771;DHT22;6449;47.666;9.160;2023-04-08T06:38:21;7.10;99.90
12771;DHT22;6449;47.666;9.160;2023-04-08T06:43:15;7.10;99.90
12771;DHT22;6449;47.666;9.160;2023-04-08T06:48:08;7.10;99.90
12771;DHT22;6449;47.666;9.160;2023-04-08T06:53:02;7.10;99.90
12771;DHT22;6449;47.666;9.160;2023-04-08T06:57:57;7.20;99.90
12771;DHT22;6449;47.666;9.160;2023-04-08T07:02:52;7.40;99.90
12771;DHT22;6449;47.666;9.160;2023-04-08T07:07:46;7.40;99.90
12771;DHT22;6449;47.666;9.160;2023-04-08T07:12:39;7.60;99.90
12771;DHT22;6449;47.666;9.160;2023-04-08T07:17:34;7.70;99.90
12771;DHT22;6449;47.666;9.160;2023-04-08T07:22:28;7.50;99.90
12771;DHT22;6449;47.666;9.160;2023-04-08T07:27:22;7.50;99.90
12771;DHT22;6449;47.666;9.160;2023-04-08T07:37:19;7.60;99.90
12771;DHT22;6449;47.666;9.160;2023-04-08T07:42:13;7.70;99.90
12771;DHT22;6449;47.666;9.160;2023-04-08T07:47:06;7.80;99.90
12771;DHT22;6449;47.666;9.160;2023-04-08T07:52:01;7.80;99.90
12771;DHT22;6449;47.666;9.160;2023-04-08T07:56:55;7.80;99.90
12771;DHT22;6449;47.666;9.160;2023-04-08T08:01:50;8.00;99.90
12771;DHT22;6449;47.666;9.160;2023-04-08T08:06:44;8.00;99.90
12771;DHT22;6449;47.666;9.160;2023-04-08T08:11:38;8.00;99.90
12771;DHT22;6449;47.666;9.160;2023-04-08T08:21:40;8.40;99.90
12771;DHT22;6449;47.666;9.160;2023-04-08T08:31:41;8.40;99.90
12771;DHT22;6449;47.666;9.160;2023-04-08T08:36:56;8.50;99.90
12771;DHT22;6449;47.666;9.160;2023-04-08T08:41:50;8.50;99.90
12771;DHT22;6449;47.666;9.160;2023-04-08T08:46:46;8.60;99.90
12771;DHT22;6449;47.666;9.160;2023-04-08T08:51:46;8.60;99.90
12771;DHT22;6449;47.666;9.160;2023-04-08T08:56:47;8.60;99.90
12771;DHT22;6449;47.666;9.160;2023-04-08T09:01:42;8.60;99.90
12771;DHT22;6449;47.666;9.160;2023-04-08T09:16:51;8.20;99.90
12771;DHT22;6449;47.666;9.160;2023-04-08T09:21:45;8.20;99.90
12771;DHT22;6449;47.666;9.160;2023-04-08T09:26:38;8.30;99.90
12771;DHT22;6449;47.666;9.160;2023-04-08T09:31:33;8.30;99.90
12771;DHT22;6449;47.666;9.160;2023-04-08T09:36:30;8.30;99.90
12771;DHT22;6449;47.666;9.160;2023-04-08T09:41:28;8.20;99.90
12771;DHT22;6449;47.666;9.160;2023-04-08T09:46:35;8.20;99.90
12771;DHT22;6449;47.666;9.160;2023-04-08T09:51:40;8.20;99.90
12771;DHT22;6449;47.666;9.160;2023-04-08T09:56:42;8.30;99.90
12771;DHT22;6449;47.666;9.160;2023-04-08T10:01:48;8.40;99.90
12771;DHT22;6449;47.666;9.160;2023-04-08T10:06:53;8.50;99.90
12771;DHT22;6449;47.666;9.160;2023-04-08T10:11:53;8.60;99.90
12771;DHT22;6449;47.666;9.160;2023-04-08T10:17:23;8.70;99.90
12771;DHT22;6449;47.666;9.160;2023-04-08T10:22:47;8.90;99.90
12771;DHT22;6449;47.666;9.160;2023-04-08T10:27:44;9.20;99.90
12771;DHT22;6449;47.666;9.160;2023-04-08T10:32:39;9.30;99.90
12771;DHT22;6449;47.666;9.160;2023-04-08T10:37:33;9.20;99.90
12771;DHT22;6449;47.666;9.160;2023-04-08T10:42:28;9.20;99.90
12771;DHT22;6449;47.666;9.160;2023-04-08T10:47:25;9.10;99.90
12771;DHT22;6449;47.666;9.160;2023-04-08T10:52:19;8.90;99.90
12771;DHT22;6449;47.666;9.160;2023-04-08T10:57:14;9.10;99.90
12771;DHT22;6449;47.666;9.160;2023-04-08T11:02:13;9.30;99.90
12771;DHT22;6449;47.666;9.160;2023-04-08T11:12:03;9.80;99.90
12771;DHT22;6449;47.666;9.160;2023-04-08T11:16:57;10.10;99.90
12771;DHT22;6449;47.666;9.160;2023-04-08T11:21:53;10.30;99.90
12771;DHT22;6449;47.666;9.160;2023-04-08T11:31:54;10.30;99.90
12771;DHT22;6449;47.666;9.160;2023-04-08T11:47:45;10.20;99.90
12771;DHT22;6449;47.666;9.160;2023-04-08T11:52:43;10.40;99.90
12771;DHT22;6449;47.666;9.160;2023-04-08T12:02:47;10.70;99.90
12771;DHT22;6449;47.666;9.160;2023-04-08T12:07:55;10.70;99.90
12771;DHT22;6449;47.666;9.160;2023-04-08T12:12:48;10.40;99.90
12771;DHT22;6449;47.666;9.160;2023-04-08T12:17:42;10.20;99.90
12771;DHT22;6449;47.666;9.160;2023-04-08T12:22:38;10.20;99.90
12771;DHT22;6449;47.666;9.160;2023-04-08T12:48:01;9.60;99.90
12771;DHT22;6449;47.666;9.160;2023-04-08T13:08:17;9.70;99.90
12771;DHT22;6449;47.666;9.160;2023-04-08T13:19:09;9.90;99.90
12771;DHT22;6449;47.666;9.160;2023-04-08T13:29:10;9.80;99.90
12771;DHT22;6449;47.666;9.160;2023-04-08T13:34:27;9.50;99.90
12771;DHT22;6449;47.666;9.160;2023-04-08T13:39:58;9.00;99.90
12771;DHT22;6449;47.666;9.160;2023-04-08T13:44:53;8.70;99.90
12771;DHT22;6449;47.666;9.160;2023-04-08T13:49:47;8.60;99.90
12771;DHT22;6449;47.666;9.160;2023-04-08T13:55:12;8.60;99.90
12771;DHT22;6449;47.666;9.160;2023-04-08T14:00:08;8.60;99.90
12771;DHT22;6449;47.666;9.160;2023-04-08T14:05:02;8.70;99.90
12771;DHT22;6449;47.666;9.160;2023-04-08T14:09:56;8.80;99.90
12771;DHT22;6449;47.666;9.160;2023-04-08T14:14:49;8.90;99.90
12771;DHT22;6449;47.666;9.160;2023-04-08T14:19:44;9.00;99.90
12771;DHT22;6449;47.666;9.160;2023-04-08T14:24:37;9.00;99.90
12771;DHT22;6449;47.666;9.160;2023-04-08T14:29:31;9.10;99.90
12771;DHT22;6449;47.666;9.160;2023-04-08T14:34:24;9.20;99.90
12771;DHT22;6449;47.666;9.160;2023-04-08T14:44:21;9.20;99.90
12771;DHT22;6449;47.666;9.160;2023-04-08T14:49:14;9.30;99.90
12771;DHT22;6449;47.666;9.160;2023-04-08T14:54:08;9.20;99.90
12771;DHT22;6449;47.666;9.160;2023-04-08T14:59:01;9.20;99.90
12771;DHT22;6449;47.666;9.160;2023-04-08T15:03:56;9.10;99.90
12771;DHT22;6449;47.666;9.160;2023-04-08T15:08:49;9.10;99.90
12771;DHT22;6449;47.666;9.160;2023-04-08T15:13:43;9.00;99.90
12771;DHT22;6449;47.666;9.160;2023-04-08T15:18:39;9.10;99.90
12771;DHT22;6449;47.666;9.160;2023-04-08T15:23:34;9.10;99.90
12771;DHT22;6449;47.666;9.160;2023-04-08T15:28:32;9.20;99.90
12771;DHT22;6449;47.666;9.160;2023-04-08T15:33:25;9.40;99.90
12771;DHT22;6449;47.666;9.160;2023-04-08T15:38:19;9.50;99.90
12771;DHT22;6449;47.666;9.160;2023-04-08T15:43:14;9.60;99.90
12771;DHT22;6449;47.666;9.160;2023-04-08T15:48:07;9.60;99.90
12771;DHT22;6449;47.666;9.160;2023-04-08T15:53:02;9.60;99.90
12771;DHT22;6449;47.666;9.160;2023-04-08T15:57:55;9.50;99.90
12771;DHT22;6449;47.666;9.160;2023-04-08T16:02:50;9.50;99.90
12771;DHT22;6449;47.666;9.160;2023-04-08T16:07:44;9.30;99.90
12771;DHT22;6449;47.666;9.160;2023-04-08T16:12:38;9.20;99.90
12771;DHT22;6449;47.666;9.160;2023-04-08T16:17:34;9.20;99.90
12771;DHT22;6449;47.666;9.160;2023-04-08T16:22:29;9.10;99.90
12771;DHT22;6449;47.666;9.160;2023-04-08T16:27:22;8.90;99.90
12771;DHT22;6449;47.666;9.160;2023-04-08T16:32:16;8.80;99.90
12771;DHT22;6449;47.666;9.160;2023-04-08T16:37:10;8.80;99.90
12771;DHT22;6449;47.666;9.160;2023-04-08T16:42:07;8.80;99.90
12771;DHT22;6449;47.666;9.160;2023-04-08T16:47:00;8.80;99.90
12771;DHT22;6449;47.666;9.160;2023-04-08T16:51:57;8.80;99.90
12771;DHT22;6449;47.666;9.160;2023-04-08T16:56:52;8.70;99.90
12771;DHT22;6449;47.666;9.160;2023-04-08T17:01:46;8.60;99.90
12771;DHT22;6449;47.666;9.160;2023-04-08T17:06:40;8.50;99.90
12771;DHT22;6449;47.666;9.160;2023-04-08T17:11:33;8.50;99.90
12771;DHT22;6449;47.666;9.160;2023-04-08T17:16:27;8.40;99.90
12771;DHT22;6449;47.666;9.160;2023-04-08T17:21:22;8.40;99.90
12771;DHT22;6449;47.666;9.160;2023-04-08T17:26:16;8.20;99.90
12771;DHT22;6449;47.666;9.160;2023-04-08T17:36:16;8.10;99.90
12771;DHT22;6449;47.666;9.160;2023-04-08T17:51:50;8.10;99.90
12771;DHT22;6449;47.666;9.160;2023-04-08T17:56:44;8.10;99.90
12771;DHT22;6449;47.666;9.160;2023-04-08T18:01:40;8.00;99.90
12771;DHT22;6449;47.666;9.160;2023-04-08T18:06:34;7.90;99.90
12771;DHT22;6449;47.666;9.160;2023-04-08T18:11:30;7.90;99.90
12771;DHT22;6449;47.666;9.160;2023-04-08T18:16:23;7.90;99.90
12771;DHT22;6449;47.666;9.160;2023-04-08T18:21:17;7.90;99.90
12771;DHT22;6449;47.666;9.160;2023-04-08T18:26:13;7.90;99.90
12771;DHT22;6449;47.666;9.160;2023-04-08T18:31:08;7.90;99.90
12771;DHT22;6449;47.666;9.160;2023-04-08T18:36:05;8.00;99.90
12771;DHT22;6449;47.666;9.160;2023-04-08T18:40:59;7.90;99.90
12771;DHT22;6449;47.666;9.160;2023-04-08T18:45:53;7.90;99.90
12771;DHT22;6449;47.666;9.160;2023-04-08T18:50:55;7.90;99.90
12771;DHT22;6449;47.666;9.160;2023-04-08T18:55:48;7.90;99.90
12771;DHT22;6449;47.666;9.160;2023-04-08T19:00:42;7.80;99.90
12771;DHT22;6449;47.666;9.160;2023-04-08T19:10:43;7.80;99.90
12771;DHT22;6449;47.666;9.160;2023-04-08T19:15:37;7.80;99.90
12771;DHT22;6449;47.666;9.160;2023-04-08T19:20:31;7.80;99.90
12771;DHT22;6449;47.666;9.160;2023-04-08T19:25:25;7.90;99.90
12771;DHT22;6449;47.666;9.160;2023-04-08T19:30:21;7.90;99.90
12771;DHT22;6449;47.666;9.160;2023-04-08T19:35:15;7.90;99.90
12771;DHT22;6449;47.666;9.160;2023-04-08T19:40:09;7.90;99.90
12771;DHT22;6449;47.666;9.160;2023-04-08T19:45:04;7.90;99.90
12771;DHT22;6449;47.666;9.160;2023-04-08T19:49:59;7.90;99.90
12771;DHT22;6449;47.666;9.160;2023-04-08T19:54:53;7.80;99.90
12771;DHT22;6449;47.666;9.160;2023-04-08T19:59:46;7.70;99.90
12771;DHT22;6449;47.666;9.160;2023-04-08T20:04:40;7.70;99.90
12771;DHT22;6449;47.666;9.160;2023-04-08T20:09:35;7.70;99.90
12771;DHT22;6449;47.666;9.160;2023-04-08T20:14:31;7.80;99.90
12771;DHT22;6449;47.666;9.160;2023-04-08T20:19:26;7.70;99.90
12771;DHT22;6449;47.666;9.160;2023-04-08T20:24:20;7.70;99.90
12771;DHT22;6449;47.666;9.160;2023-04-08T20:29:15;7.70;99.90
12771;DHT22;6449;47.666;9.160;2023-04-08T20:34:08;7.70;99.90
12771;DHT22;6449;47.666;9.160;2023-04-08T20:51:03;7.50;99.90
12771;DHT22;6449;47.666;9.160;2023-04-08T20:55:56;7.40;99.90
12771;DHT22;6449;47.666;9.160;2023-04-08T21:00:50;7.40;99.90
12771;DHT22;6449;47.666;9.160;2023-04-08T21:05:45;7.40;99.90
12771;DHT22;6449;47.666;9.160;2023-04-08T21:10:40;7.30;99.90
12771;DHT22;6449;47.666;9.160;2023-04-08T21:15:33;7.30;99.90
12771;DHT22;6449;47.666;9.160;2023-04-08T21:20:26;7.30;99.90
12771;DHT22;6449;47.666;9.160;2023-04-08T21:25:21;7.10;99.90
12771;DHT22;6449;47.666;9.160;2023-04-08T21:35:22;6.90;99.90
12771;DHT22;6449;47.666;9.160;2023-04-08T21:40:16;6.90;99.90
12771;DHT22;6449;47.666;9.160;2023-04-08T21:45:11;7.00;99.90
12771;DHT22;6449;47.666;9.160;2023-04-08T21:50:06;6.90;99.90
12771;DHT22;6449;47.666;9.160;2023-04-08T21:55:00;7.00;99.90
12771;DHT22;6449;47.666;9.160;2023-04-08T21:59:54;7.00;99.90
12771;DHT22;6449;47.666;9.160;2023-04-08T22:04:49;7.00;99.90
12771;DHT22;6449;47.666;9.160;2023-04-08T22:09:43;7.10;99.90
12771;DHT22;6449;47.666;9.160;2023-04-08T22:14:38;7.00;99.90
12771;DHT22;6449;47.666;9.160;2023-04-08T22:19:31;7.00;99.90
12771;DHT22;6449;47.666;9.160;2023-04-08T22:29:33;7.00;99.90
12771;DHT22;6449;47.666;9.160;2023-04-08T22:34:27;6.90;99.90
12771;DHT22;6449;47.666;9.160;2023-04-08T22:44:27;6.90;99.90
12771;DHT22;6449;47.666;9.160;2023-04-08T22:54:28;6.90;99.90
12771;DHT22;6449;47.666;9.160;2023-04-08T22:59:21;6.80;99.90
12771;DHT22;6449;47.666;9.160;2023-04-08T23:04:15;6.90;99.90
12771;DHT22;6449;47.666;9.160;2023-04-08T23:14:17;7.00;99.90
12771;DHT22;6449;47.666;9.160;2023-04-08T23:34:19;7.00;99.90
12771;DHT22;6449;47.666;9.160;2023-04-08T23:44:20;6.90;99.90
12771;DHT22;6449;47.666;9.160;2023-04-08T23:49:13;6.70;99.90
12771;DHT22;6449;47.666;9.160;2023-04-08T23:54:08;6.60;99.90
12771;DHT22;6449;47.666;9.160;2023-04-08T23:59:01;6.50;99.90
